Time;durP1;ratioP1;P1;durP2;ratioP2;P2;SDS_P1;SDS_P2;PMS_P1;PMS_P2;Temp;Humidity;BMP_temperature;BMP_pressure;BME280_temperature;BME280_humidity;BME280_pressure;Samples;Min_cycle;Max_cycle;Signal;HPM_P1;HPM_P2
2022/10/30 00:01:01;;;;;;;;;;;;;;;-143.57;100.00;50957.09;4962947;28;20707;-67
2022/10/30 00:03:27;;;;;;;;;;;;;;;-143.57;100.00;50925.31;4959908;28;20065;-67
2022/10/30 00:05:54;;;;;;;;;;;;;;;-143.57;100.00;50937.22;4964925;28;19992;-67
2022/10/30 00:08:24;;;;;;;;;;;;;;;-143.57;100.00;50889.53;4955307;28;19937;-67
2022/10/30 00:10:51;;;;;;;;;;;;;;;-143.57;100.00;50901.44;4963026;28;19933;-67
2022/10/30 00:13:18;;;;;;;;;;;;;;;-143.57;100.00;50909.41;4944292;28;19934;-66
2022/10/30 00:15:51;;;;;;;;;;;;;;;-143.57;100.00;50945.19;4959350;28;20020;-66
2022/10/30 00:18:19;;;;;;;;;;;;;;;-143.57;100.00;50933.25;4961860;28;19926;-66
2022/10/30 00:20:45;;;;;;;;;;;;;;;-143.57;100.00;50909.41;4963255;28;19970;-66
2022/10/30 00:23:12;;;;;;;;;;;;;;;-143.57;100.00;50945.19;4958825;28;19926;-67
2022/10/30 00:25:39;;;;;;;;;;;;;;;-143.57;100.00;50917.34;4957026;28;19997;-66
2022/10/30 00:28:06;;;;;;;;;;;;;;;-143.57;100.00;50897.47;4957601;28;19998;-66
2022/10/30 00:30:33;;;;;;;;;;;;;;;-143.57;100.00;50889.53;4961423;28;19936;-67
2022/10/30 00:33:00;;;;;;;;;;;;;;;-143.57;100.00;50889.53;4963163;28;21195;-67
2022/10/30 00:35:27;;;;;;;;;;;;;;;-143.57;100.00;50891.50;4962389;28;19930;-66
2022/10/30 00:37:54;;;;;;;;;;;;;;;-143.57;100.00;50955.13;4961991;28;19929;-66
2022/10/30 00:40:21;;;;;;;;;;;;;;;-143.57;100.00;50887.53;4962773;28;19961;-67
2022/10/30 00:42:48;;;;;;;;;;;;;;;-143.57;100.00;50919.34;4958090;28;20523;-68
2022/10/30 00:45:15;;;;;;;;;;;;;;;-143.57;100.00;50945.19;4959920;28;20014;-68
2022/10/30 00:47:43;;;;;;;;;;;;;;;-143.57;100.00;50903.44;4958031;28;19934;-70
2022/10/30 00:50:13;;;;;;;;;;;;;;;-143.57;100.00;50931.25;4956371;28;19937;-68
2022/10/30 00:52:44;;;;;;;;;;;;;;;-143.57;100.00;50921.31;4960458;28;19937;-69
2022/10/30 00:55:14;;;;;;;;;;;;;;;-143.57;100.00;50967.03;4956789;28;20687;-68
2022/10/30 00:57:41;;;;;;;;;;;;;;;-143.57;100.00;50931.25;4966581;28;19977;-68
2022/10/30 01:00:09;;;;;;;;;;;;;;;-143.57;100.00;50901.44;4961023;28;20442;-68
2022/10/30 01:02:36;;;;;;;;;;;;;;;-143.57;100.00;50941.19;4944552;28;19938;-68
2022/10/30 01:05:04;;;;;;;;;;;;;;;-143.57;100.00;50939.22;4951248;28;20020;-68
2022/10/30 01:07:31;;;;;;;;;;;;;;;-143.57;100.00;50945.19;4966113;28;20027;-68
2022/10/30 01:09:58;;;;;;;;;;;;;;;-143.57;100.00;50951.13;4964948;28;19957;-68
2022/10/30 01:12:25;;;;;;;;;;;;;;;-143.57;100.00;50969.03;4947546;28;19926;-69
2022/10/30 01:14:55;;;;;;;;;;;;;;;-143.57;100.00;50925.31;4968354;28;19926;-70
2022/10/30 01:17:29;;;;;;;;;;;;;;;-143.57;100.00;50921.31;4968172;28;19934;-69
2022/10/30 01:20:08;;;;;;;;;;;;;;;-143.57;100.00;50897.47;4967569;28;19937;-69
2022/10/30 01:22:56;;;;;;;;;;;;;;;-143.57;100.00;50943.19;4968388;28;19930;-69
2022/10/30 01:25:23;;;;;;;;;;;;;;;-143.57;100.00;50939.22;4969163;28;20021;-69
2022/10/30 01:27:57;;;;;;;;;;;;;;;-143.57;100.00;50941.19;4964978;28;19934;-69
2022/10/30 01:30:23;;;;;;;;;;;;;;;-143.57;100.00;50913.38;4966775;28;19926;-69
2022/10/30 01:32:59;;;;;;;;;;;;;;;-143.57;100.00;50941.19;4947659;28;19937;-70
2022/10/30 01:35:39;;;;;;;;;;;;;;;-143.57;100.00;50937.22;4963882;28;19941;-69
2022/10/30 01:38:14;;;;;;;;;;;;;;;-143.57;100.00;50965.06;4966420;28;20059;-70
2022/10/30 01:40:44;;;;;;;;;;;;;;;-143.57;100.00;50921.31;4965622;28;20016;-70
2022/10/30 01:43:10;;;;;;;;;;;;;;;-143.57;100.00;50909.41;4966950;28;20120;-70
2022/10/30 01:45:56;;;;;;;;;;;;;;;-143.57;100.00;50925.31;4966100;28;19941;-70
2022/10/30 01:48:35;;;;;;;;;;;;;;;-143.57;100.00;50923.31;4954790;28;20037;-70
2022/10/30 01:51:02;;;;;;;;;;;;;;;-143.57;100.00;50931.25;4964236;28;20038;-70
2022/10/30 01:53:35;;;;;;;;;;;;;;;-143.57;100.00;50921.31;4967725;28;19926;-70
2022/10/30 01:56:18;;;;;;;;;;;;;;;-143.57;100.00;50925.31;4966696;28;19937;-70
2022/10/30 01:58:45;;;;;;;;;;;;;;;-143.57;100.00;50905.41;4965185;28;19938;-70
2022/10/30 02:01:12;;;;;;;;;;;;;;;-143.57;100.00;50925.31;4965658;28;20001;-70
2022/10/30 02:03:39;;;;;;;;;;;;;;;-143.57;100.00;50937.22;4972164;28;20427;-70
2022/10/30 02:06:06;;;;;;;;;;;;;;;-143.57;100.00;50921.31;4962884;28;19934;-70
2022/10/30 02:08:33;;;;;;;;;;;;;;;-143.57;100.00;50937.22;4949839;28;20544;-70
2022/10/30 02:11:03;;;;;;;;;;;;;;;-143.57;100.00;50945.19;4968180;28;20676;-69
2022/10/30 02:13:37;;;;;;;;;;;;;;;-143.57;100.00;50917.34;4969524;28;19930;-69
2022/10/30 02:16:04;;;;;;;;;;;;;;;-143.57;100.00;50929.28;4963247;28;19992;-70
2022/10/30 02:18:31;;;;;;;;;;;;;;;-143.57;100.00;50915.38;4969542;28;20664;-68
2022/10/30 02:20:59;;;;;;;;;;;;;;;-143.57;100.00;50917.34;4966759;28;19926;-69
2022/10/30 02:23:26;;;;;;;;;;;;;;;-143.57;100.00;50915.38;4959998;28;19934;-68
2022/10/30 02:25:53;;;;;;;;;;;;;;;-143.57;100.00;50969.03;4945092;28;19993;-66
2022/10/30 02:28:20;;;;;;;;;;;;;;;-143.57;100.00;50933.25;4954717;28;20615;-68
2022/10/30 02:30:47;;;;;;;;;;;;;;;-143.57;100.00;50921.31;4953940;28;20507;-68
2022/10/30 02:33:14;;;;;;;;;;;;;;;-143.57;100.00;50901.44;4967736;28;19930;-68
2022/10/30 02:35:40;;;;;;;;;;;;;;;-143.57;100.00;50941.19;4965887;28;19957;-68
2022/10/30 02:38:07;;;;;;;;;;;;;;;-143.57;100.00;50971.03;4971301;28;20698;-69
2022/10/30 02:40:34;;;;;;;;;;;;;;;-143.57;100.00;50929.28;4951039;28;19937;-68
2022/10/30 02:43:00;;;;;;;;;;;;;;;-143.57;100.00;50957.09;4961135;28;20023;-68
2022/10/30 02:45:28;;;;;;;;;;;;;;;-143.57;100.00;50945.19;4952187;28;19961;-68
2022/10/30 02:47:55;;;;;;;;;;;;;;;-143.57;100.00;50913.38;4964722;28;19933;-68
2022/10/30 02:50:22;;;;;;;;;;;;;;;-143.57;100.00;50945.19;4946304;28;19936;-68
2022/10/30 02:52:50;;;;;;;;;;;;;;;-143.57;100.00;50933.25;4949343;28;19930;-69
2022/10/30 02:55:17;;;;;;;;;;;;;;;-143.57;100.00;50949.16;4958228;28;20068;-69
2022/10/30 02:57:45;;;;;;;;;;;;;;;-143.57;100.00;50925.31;4947444;28;19926;-69
2022/10/30 03:00:12;;;;;;;;;;;;;;;-143.57;100.00;50917.34;4946849;28;20451;-69
2022/10/30 03:02:38;;;;;;;;;;;;;;;-143.57;100.00;50913.38;4962310;28;19934;-69
2022/10/30 03:05:05;;;;;;;;;;;;;;;-143.57;100.00;50933.25;4942386;28;19930;-69
2022/10/30 03:07:32;;;;;;;;;;;;;;;-143.57;100.00;50929.28;4958583;28;19953;-69
2022/10/30 03:09:59;;;;;;;;;;;;;;;-143.57;100.00;50933.25;4958129;28;19926;-69
2022/10/30 03:12:26;;;;;;;;;;;;;;;-143.57;100.00;50951.13;4965608;28;19926;-68
2022/10/30 03:14:52;;;;;;;;;;;;;;;-143.57;100.00;50953.13;4958802;28;19933;-69
2022/10/30 03:17:19;;;;;;;;;;;;;;;-143.57;100.00;50917.34;4963111;28;20382;-69
2022/10/30 03:19:47;;;;;;;;;;;;;;;-143.57;100.00;50961.06;4958639;28;20599;-69
2022/10/30 03:22:14;;;;;;;;;;;;;;;-143.57;100.00;50921.31;4957046;28;20096;-69
2022/10/30 03:24:40;;;;;;;;;;;;;;;-143.57;100.00;50909.41;4959328;28;19930;-69
2022/10/30 03:27:07;;;;;;;;;;;;;;;-143.57;100.00;50909.41;4959653;28;19988;-68
2022/10/30 03:29:34;;;;;;;;;;;;;;;-143.57;100.00;50925.31;4961458;28;20710;-68
2022/10/30 03:32:03;;;;;;;;;;;;;;;-143.57;100.00;50925.31;4941993;28;19985;-69
2022/10/30 03:34:34;;;;;;;;;;;;;;;-143.57;100.00;50947.16;4942629;28;19934;-67
2022/10/30 03:37:04;;;;;;;;;;;;;;;-143.57;100.00;50959.09;4955752;28;19934;-68
2022/10/30 03:39:31;;;;;;;;;;;;;;;-143.57;100.00;50917.34;4959403;28;20371;-68
2022/10/30 03:41:58;;;;;;;;;;;;;;;-143.57;100.00;50929.28;4962616;28;19925;-68
2022/10/30 03:44:26;;;;;;;;;;;;;;;-143.57;100.00;50945.19;4956704;28;19926;-69
2022/10/30 03:46:54;;;;;;;;;;;;;;;-143.57;100.00;50945.19;4958566;28;19938;-70
2022/10/30 03:49:27;;;;;;;;;;;;;;;-143.57;100.00;50921.31;4946782;28;19934;-70
2022/10/30 03:51:55;;;;;;;;;;;;;;;-143.57;100.00;50901.44;4945051;28;20427;-66
2022/10/30 03:54:24;;;;;;;;;;;;;;;-143.57;100.00;50921.31;4954965;28;19933;-67
2022/10/30 03:56:50;;;;;;;;;;;;;;;-143.57;100.00;50927.28;4958036;28;19952;-69
2022/10/30 03:59:22;;;;;;;;;;;;;;;-143.57;100.00;50965.06;4942125;28;19931;-67
2022/10/30 04:02:14;;;;;;;;;;;;;;;-143.57;100.00;50929.28;4950392;28;20021;-67
2022/10/30 04:04:41;;;;;;;;;;;;;;;-143.57;100.00;50909.41;4966526;28;19937;-68
2022/10/30 04:07:08;;;;;;;;;;;;;;;-143.57;100.00;50949.16;4963307;28;20044;-68
2022/10/30 04:09:34;;;;;;;;;;;;;;;-143.57;100.00;50925.31;4960713;28;19934;-68
2022/10/30 04:12:01;;;;;;;;;;;;;;;-143.57;100.00;50935.25;4943709;28;20452;-69
2022/10/30 04:14:28;;;;;;;;;;;;;;;-143.57;100.00;50949.16;4942135;28;19930;-68
2022/10/30 04:16:55;;;;;;;;;;;;;;;-143.57;100.00;50917.34;4962764;28;19977;-68
2022/10/30 04:19:21;;;;;;;;;;;;;;;-143.57;100.00;50925.31;4939650;28;19938;-68
2022/10/30 04:21:50;;;;;;;;;;;;;;;-143.57;100.00;50925.31;4944025;28;19935;-67
2022/10/30 04:24:17;;;;;;;;;;;;;;;-143.57;100.00;50961.06;4959315;28;20328;-68
2022/10/30 04:26:47;;;;;;;;;;;;;;;-143.57;100.00;50965.06;4962616;28;19953;-68
2022/10/30 04:29:14;;;;;;;;;;;;;;;-143.57;100.00;50988.91;4963628;28;20553;-68
2022/10/30 04:31:42;;;;;;;;;;;;;;;-143.57;100.00;50949.16;4938638;28;20109;-69
2022/10/30 04:34:09;;;;;;;;;;;;;;;-143.57;100.00;50929.28;4943289;28;20029;-69
2022/10/30 04:36:36;;;;;;;;;;;;;;;-143.57;100.00;50941.19;4959254;28;19933;-68
2022/10/30 04:39:03;;;;;;;;;;;;;;;-143.57;100.00;50901.44;4963150;28;19936;-68
2022/10/30 04:41:31;;;;;;;;;;;;;;;-143.57;100.00;50937.22;4943951;28;19999;-68
2022/10/30 04:44:02;;;;;;;;;;;;;;;-143.57;100.00;50943.19;4950170;28;19930;-69
2022/10/30 04:46:31;;;;;;;;;;;;;;;-143.57;100.00;50925.31;4946310;28;19937;-69
2022/10/30 04:49:05;;;;;;;;;;;;;;;-143.57;100.00;50961.06;4965314;28;19966;-68
2022/10/30 04:51:32;;;;;;;;;;;;;;;-143.57;100.00;50957.09;4962042;28;19930;-68
2022/10/30 04:54:00;;;;;;;;;;;;;;;-143.57;100.00;50953.13;4948671;28;19934;-68
2022/10/30 04:56:31;;;;;;;;;;;;;;;-143.57;100.00;50907.41;4965000;28;19933;-67
2022/10/30 04:58:58;;;;;;;;;;;;;;;-143.57;100.00;50945.19;4963398;28;19989;-67
2022/10/30 05:01:25;;;;;;;;;;;;;;;-143.57;100.00;50953.13;4962601;28;19927;-68
2022/10/30 05:03:52;;;;;;;;;;;;;;;-143.57;100.00;50945.19;4950984;28;20523;-68
2022/10/30 05:06:25;;;;;;;;;;;;;;;-143.57;100.00;50945.19;4940079;28;19972;-68
2022/10/30 05:08:52;;;;;;;;;;;;;;;-143.57;100.00;50885.53;4940597;28;19934;-68
2022/10/30 05:11:28;;;;;;;;;;;;;;;-143.57;100.00;50980.97;4943591;28;21268;-68
2022/10/30 05:13:55;;;;;;;;;;;;;;;-143.57;100.00;50965.06;4942481;28;20309;-69
2022/10/30 05:16:22;;;;;;;;;;;;;;;-143.57;100.00;50955.13;4946278;28;19926;-68
2022/10/30 05:18:50;;;;;;;;;;;;;;;-143.57;100.00;50925.31;4957193;28;19932;-69
2022/10/30 05:21:16;;;;;;;;;;;;;;;-143.57;100.00;50953.13;4940597;28;19958;-68
2022/10/30 05:23:45;;;;;;;;;;;;;;;-143.57;100.00;50951.13;4963403;28;19934;-68
2022/10/30 05:26:11;;;;;;;;;;;;;;;-143.57;100.00;50933.25;4963740;28;20430;-67
2022/10/30 05:28:39;;;;;;;;;;;;;;;-143.57;100.00;50921.31;4959227;28;20686;-68
2022/10/30 05:31:05;;;;;;;;;;;;;;;-143.57;100.00;50963.06;4939734;28;19931;-68
2022/10/30 05:33:50;;;;;;;;;;;;;;;-143.57;100.00;50921.31;4944378;28;19933;-68
2022/10/30 05:36:17;;;;;;;;;;;;;;;-143.57;100.00;50937.22;4958622;28;20355;-67
2022/10/30 05:38:45;;;;;;;;;;;;;;;-143.57;100.00;50933.25;4957065;28;19935;-67
2022/10/30 05:41:20;;;;;;;;;;;;;;;-143.57;100.00;50963.06;4955284;28;19934;-68
2022/10/30 05:43:47;;;;;;;;;;;;;;;-143.57;100.00;50933.25;4937195;28;19949;-68
2022/10/30 05:46:14;;;;;;;;;;;;;;;-143.57;100.00;50973.00;4954955;28;19938;-68
2022/10/30 05:48:41;;;;;;;;;;;;;;;-143.57;100.00;50953.13;4965291;28;19934;-68
2022/10/30 05:51:08;;;;;;;;;;;;;;;-143.57;100.00;50937.22;4944078;28;20021;-69
2022/10/30 05:53:37;;;;;;;;;;;;;;;-143.57;100.00;50941.19;4947623;28;19938;-69
2022/10/30 05:56:04;;;;;;;;;;;;;;;-143.57;100.00;50945.19;4939605;28;19942;-68
2022/10/30 05:58:33;;;;;;;;;;;;;;;-143.57;100.00;50965.06;4927798;29;19997;-68
2022/10/30 06:01:06;;;;;;;;;;;;;;;-143.57;100.00;50980.97;4924872;29;20761;-68
2022/10/30 06:03:43;;;;;;;;;;;;;;;-143.57;100.00;50937.22;4945978;28;20021;-69
2022/10/30 06:06:11;;;;;;;;;;;;;;;-143.57;100.00;50961.06;4942474;28;20636;-68
2022/10/30 06:08:37;;;;;;;;;;;;;;;-143.57;100.00;50969.03;4946761;28;19930;-68
2022/10/30 06:11:20;;;;;;;;;;;;;;;-143.57;100.00;50955.13;4942285;28;20029;-68
2022/10/30 06:13:52;;;;;;;;;;;;;;;-143.57;100.00;50961.06;4914788;29;19938;-69
2022/10/30 06:16:25;;;;;;;;;;;;;;;-143.57;100.00;50969.03;4944659;28;20038;-68
2022/10/30 06:19:14;;;;;;;;;;;;;;;-143.57;100.00;50949.16;4924649;28;19942;-68
2022/10/30 06:21:46;;;;;;;;;;;;;;;-143.57;100.00;50957.09;4924257;29;19930;-69
2022/10/30 06:24:21;;;;;;;;;;;;;;;-143.57;100.00;50978.97;4923126;29;20640;-69
2022/10/30 06:27:03;;;;;;;;;;;;;;;-143.57;100.00;50984.94;4925839;29;19930;-69
2022/10/30 06:29:29;;;;;;;;;;;;;;;-143.57;100.00;50961.06;4931932;28;19934;-68
2022/10/30 06:31:56;;;;;;;;;;;;;;;-143.57;100.00;50949.16;4924536;29;19927;-68
2022/10/30 06:34:27;;;;;;;;;;;;;;;-143.57;100.00;50984.94;4939716;28;19971;-67
2022/10/30 06:36:54;;;;;;;;;;;;;;;-143.57;100.00;50973.00;4939287;28;19935;-67
2022/10/30 06:39:21;;;;;;;;;;;;;;;-143.57;100.00;50943.19;4938974;28;19965;-66
2022/10/30 06:42:08;;;;;;;;;;;;;;;-143.57;100.00;50953.13;4929982;28;19938;-66
2022/10/30 06:44:56;;;;;;;;;;;;;;;-143.57;100.00;50963.06;4927159;29;19942;-66
2022/10/30 06:47:23;;;;;;;;;;;;;;;-143.57;100.00;50971.03;4944844;28;20635;-67
2022/10/30 06:49:50;;;;;;;;;;;;;;;-143.57;100.00;50947.16;4942443;28;20598;-67
2022/10/30 06:52:21;;;;;;;;;;;;;;;-143.57;100.00;50949.16;4966122;28;19992;-67
2022/10/30 06:54:50;;;;;;;;;;;;;;;-143.57;100.00;50969.03;4962760;28;19934;-67
2022/10/30 06:57:39;;;;;;;;;;;;;;;-143.57;100.00;51004.81;4968822;28;19934;-66
2022/10/30 07:00:24;;;;;;;;;;;;;;;-143.57;100.00;50988.91;4966100;28;19925;-66
2022/10/30 07:03:09;;;;;;;;;;;;;;;-143.57;100.00;50961.06;4965339;28;20008;-67
2022/10/30 07:05:36;;;;;;;;;;;;;;;-143.57;100.00;50988.91;4964905;28;19934;-67
2022/10/30 07:08:02;;;;;;;;;;;;;;;-143.57;100.00;50945.19;4961713;28;20528;-67
2022/10/30 07:10:29;;;;;;;;;;;;;;;-143.57;100.00;50965.06;4962085;28;20016;-67
2022/10/30 07:13:22;;;;;;;;;;;;;;;-143.57;100.00;50988.91;4953860;28;19937;-67
2022/10/30 07:15:54;;;;;;;;;;;;;;;-143.57;100.00;50959.09;4952933;28;19922;-66
2022/10/30 07:18:23;;;;;;;;;;;;;;;-143.57;100.00;50984.94;4959275;28;20032;-66
2022/10/30 07:20:55;;;;;;;;;;;;;;;-143.57;100.00;50969.03;4955171;28;21417;-66
2022/10/30 07:23:23;;;;;;;;;;;;;;;-143.57;100.00;50976.97;4966018;28;20396;-67
2022/10/30 07:25:52;;;;;;;;;;;;;;;-143.57;100.00;50980.97;4960845;28;19933;-66
2022/10/30 07:28:30;;;;;;;;;;;;;;;-143.57;100.00;50955.13;4964196;28;20747;-66
2022/10/30 07:31:32;;;;;;;;;;;;;;;-143.57;100.00;50953.13;4941750;28;19941;-66
2022/10/30 07:34:47;;;;;;;;;;;;;;;-143.57;100.00;50959.09;4966728;28;19930;-68
2022/10/30 07:37:29;;;;;;;;;;;;;;;-143.57;100.00;50961.06;4962046;28;20561;-67
2022/10/30 07:40:09;;;;;;;;;;;;;;;-143.57;100.00;50953.13;4964981;28;19937;-66
2022/10/30 07:42:45;;;;;;;;;;;;;;;-143.57;100.00;50969.03;4964933;28;19937;-67
2022/10/30 07:45:39;;;;;;;;;;;;;;;-143.57;100.00;50949.16;4969330;28;19933;-66
2022/10/30 07:48:24;;;;;;;;;;;;;;;-143.57;100.00;51004.81;4964959;28;19933;-67
2022/10/30 07:51:26;;;;;;;;;;;;;;;-143.57;100.00;50973.00;4958142;28;20017;-68
2022/10/30 07:53:53;;;;;;;;;;;;;;;-143.57;100.00;50994.88;4942323;28;20028;-68
2022/10/30 07:56:22;;;;;;;;;;;;;;;-143.57;100.00;51008.78;4943394;28;19932;-68
2022/10/30 07:58:55;;;;;;;;;;;;;;;-143.57;100.00;50996.84;4954895;28;20391;-68
2022/10/30 08:01:43;;;;;;;;;;;;;;;-143.57;100.00;50973.00;4958293;28;20032;-68
2022/10/30 08:04:25;;;;;;;;;;;;;;;-143.57;100.00;50961.06;4962214;28;20441;-67
2022/10/30 08:06:57;;;;;;;;;;;;;;;-143.57;100.00;50961.06;4961976;28;20438;-68
2022/10/30 08:09:24;;;;;;;;;;;;;;;-143.57;100.00;50953.13;4963208;28;20675;-68
2022/10/30 08:11:50;;;;;;;;;;;;;;;-143.57;100.00;50969.03;4968274;28;19988;-67
2022/10/30 08:14:17;;;;;;;;;;;;;;;-143.57;100.00;50990.91;4942634;28;19941;-66
2022/10/30 08:16:44;;;;;;;;;;;;;;;-143.57;100.00;50978.97;4972683;28;19938;-67
2022/10/30 08:19:10;;;;;;;;;;;;;;;-143.57;100.00;51008.78;4965192;28;20328;-67
2022/10/30 08:21:37;;;;;;;;;;;;;;;-143.57;100.00;50969.03;4939465;28;19936;-67
2022/10/30 08:24:09;;;;;;;;;;;;;;;-143.57;100.00;50982.94;4955815;28;19926;-67
2022/10/30 08:26:40;;;;;;;;;;;;;;;-143.57;100.00;50980.97;4965928;28;19981;-67
2022/10/30 08:29:09;;;;;;;;;;;;;;;-143.57;100.00;50973.00;4951138;28;19937;-67
2022/10/30 08:31:37;;;;;;;;;;;;;;;-143.57;100.00;50957.09;4945050;28;20995;-66
2022/10/30 08:34:35;;;;;;;;;;;;;;;-143.57;100.00;51008.78;4947260;28;19941;-67
2022/10/30 08:37:06;;;;;;;;;;;;;;;-143.57;100.00;50973.00;4965429;28;20029;-67
2022/10/30 08:39:34;;;;;;;;;;;;;;;-143.57;100.00;50945.19;4957688;28;20262;-67
2022/10/30 08:42:20;;;;;;;;;;;;;;;-143.57;100.00;50988.91;4962906;28;19930;-67
2022/10/30 08:44:47;;;;;;;;;;;;;;;-143.57;100.00;51008.78;4958888;28;19930;-67
2022/10/30 08:47:14;;;;;;;;;;;;;;;-143.57;100.00;51012.75;4948841;28;20588;-67
2022/10/30 08:49:41;;;;;;;;;;;;;;;-143.57;100.00;50967.03;4964158;28;19934;-67
2022/10/30 08:52:09;;;;;;;;;;;;;;;-143.57;100.00;50971.03;4961965;28;19930;-67
2022/10/30 08:54:37;;;;;;;;;;;;;;;-143.57;100.00;50965.06;4938854;28;20022;-67
2022/10/30 08:57:04;;;;;;;;;;;;;;;-143.57;100.00;50992.88;4958406;28;19995;-69
2022/10/30 08:59:31;;;;;;;;;;;;;;;-143.57;100.00;50949.16;4966049;28;20474;-67
2022/10/30 09:01:58;;;;;;;;;;;;;;;-143.57;100.00;50996.84;4963938;28;20425;-68
2022/10/30 09:04:44;;;;;;;;;;;;;;;-143.57;100.00;50984.94;4961999;28;20023;-68
2022/10/30 09:07:10;;;;;;;;;;;;;;;-143.57;100.00;50998.84;4958378;28;19930;-69
2022/10/30 09:09:38;;;;;;;;;;;;;;;-143.57;100.00;50961.06;4960805;28;19926;-68
2022/10/30 09:12:06;;;;;;;;;;;;;;;-143.57;100.00;50986.91;4942653;28;19934;-69
2022/10/30 09:14:40;;;;;;;;;;;;;;;-143.57;100.00;50976.97;4968149;28;19936;-67
2022/10/30 09:17:08;;;;;;;;;;;;;;;-143.57;100.00;51008.78;4962356;28;20014;-67
2022/10/30 09:19:36;;;;;;;;;;;;;;;-143.57;100.00;51004.81;4961585;28;19929;-67
2022/10/30 09:22:04;;;;;;;;;;;;;;;-143.57;100.00;50975.00;4945470;28;19969;-67
2022/10/30 09:24:32;;;;;;;;;;;;;;;-143.57;100.00;50984.94;4964828;28;19941;-68
2022/10/30 09:27:18;;;;;;;;;;;;;;;-143.57;100.00;50957.09;4963679;28;19937;-68
2022/10/30 09:29:47;;;;;;;;;;;;;;;-143.57;100.00;50973.00;4940217;28;19936;-68
2022/10/30 09:32:21;;;;;;;;;;;;;;;-143.57;100.00;51008.78;4970335;28;19961;-68
2022/10/30 09:35:05;;;;;;;;;;;;;;;-143.57;100.00;50984.94;4947229;28;19930;-69
2022/10/30 09:37:36;;;;;;;;;;;;;;;-143.57;100.00;50971.03;4966713;28;19933;-68
2022/10/30 09:40:12;;;;;;;;;;;;;;;-143.57;100.00;50955.13;4951166;28;19930;-69
2022/10/30 09:42:40;;;;;;;;;;;;;;;-143.57;95.93;50984.94;4963737;28;19960;-68
2022/10/30 09:45:09;;;;;;;;;;;;;;;-143.57;94.91;50984.94;4951787;28;20489;-69
2022/10/30 09:48:10;;;;;;;;;;;;;;;-143.57;93.25;50976.97;4972586;28;19934;-68
2022/10/30 09:50:58;;;;;;;;;;;;;;;-143.57;63.86;50984.94;4958091;28;19930;-69
2022/10/30 09:53:43;;;;;;;;;;;;;;;-143.57;63.38;50996.84;4965909;28;19934;-69
2022/10/30 09:56:21;;;;;;;;;;;;;;;-143.57;63.15;50992.88;4961622;28;20784;-69
2022/10/30 09:58:57;;;;;;;;;;;;;;;-143.57;63.06;50984.94;4959881;28;19938;-69
2022/10/30 10:01:38;;;;;;;;;;;;;;;-143.57;63.04;50988.91;4961952;28;19926;-69
2022/10/30 10:04:18;;;;;;;;;;;;;;;-143.57;62.70;50992.88;4940906;28;19922;-69
2022/10/30 10:07:21;;;;;;;;;;;;;;;-143.57;62.57;51004.81;4962367;28;19973;-68
2022/10/30 10:10:12;;;;;;;;;;;;;;;-143.57;63.09;50969.03;4921890;28;19930;-69
2022/10/30 10:12:48;;;;;;;;;;;;;;;-143.57;61.92;51016.72;4945077;28;19950;-67
2022/10/30 10:15:33;;;;;;;;;;;;;;;-143.57;61.04;51008.78;4969515;28;20077;-68
2022/10/30 10:18:01;;;;;;;;;;;;;;;-143.57;60.26;50971.03;4965165;28;20764;-68
2022/10/30 10:20:36;;;;;;;;;;;;;;;-143.57;60.93;50988.91;4968015;28;21359;-68
2022/10/30 10:26:22;;;;;;;;;;;;;;;-143.57;59.17;50965.06;4967507;28;20557;-67
2022/10/30 10:28:55;;;;;;;;;;;;;;;-143.57;59.14;50933.25;4970994;28;20028;-68
2022/10/30 10:31:35;;;;;;;;;;;;;;;-143.57;58.63;51008.78;4971256;28;20403;-68
2022/10/30 10:34:04;;;;;;;;;;;;;;;-143.57;58.54;50976.97;4966932;28;19934;-67
2022/10/30 10:36:41;;;;;;;;;;;;;;;-143.57;58.31;51004.81;4964290;28;19934;-68
2022/10/30 10:39:13;;;;;;;;;;;;;;;-143.57;57.73;50996.84;4966308;28;20324;-67
2022/10/30 10:41:55;;;;;;;;;;;;;;;-143.57;57.35;50976.97;4969554;28;19937;-68
2022/10/30 10:44:30;;;;;;;;;;;;;;;-143.57;56.46;50961.06;4973852;28;19926;-68
2022/10/30 10:47:16;;;;;;;;;;;;;;;-143.57;56.06;51000.84;4974388;28;19930;-67
2022/10/30 10:49:52;;;;;;;;;;;;;;;-143.57;56.73;50980.97;4964340;28;19938;-68
2022/10/30 10:52:24;;;;;;;;;;;;;;;-143.57;55.96;51008.78;4961898;28;20482;-68
2022/10/30 10:54:55;;;;;;;;;;;;;;;-143.57;55.45;50996.84;4970262;28;21747;-68
2022/10/30 10:57:21;;;;;;;;;;;;;;;-143.57;54.87;50969.03;4974515;28;20619;-67
2022/10/30 10:59:52;;;;;;;;;;;;;;;-143.57;54.76;50992.88;4970531;28;19976;-66
2022/10/30 11:02:19;;;;;;;;;;;;;;;-143.57;53.71;50980.97;4976844;28;19969;-68
2022/10/30 11:04:49;;;;;;;;;;;;;;;-143.57;53.02;50992.88;4966888;28;20252;-67
2022/10/30 11:07:19;;;;;;;;;;;;;;;-143.57;52.92;50996.84;4962731;28;19926;-67
2022/10/30 11:09:49;;;;;;;;;;;;;;;-143.57;53.27;50988.91;4959182;28;19993;-67
2022/10/30 11:12:19;;;;;;;;;;;;;;;-143.57;52.57;51008.78;4964802;28;19965;-67
2022/10/30 11:14:46;;;;;;;;;;;;;;;-143.57;49.87;50980.97;4962146;28;19962;-67
2022/10/30 11:17:22;;;;;;;;;;;;;;;-143.57;46.79;51008.78;4966370;28;19953;-67
2022/10/30 11:19:53;;;;;;;;;;;;;;;-143.57;46.70;51012.75;4959534;28;19930;-68
2022/10/30 11:22:24;;;;;;;;;;;;;;;-143.57;47.36;51008.78;4964980;28;20675;-67
2022/10/30 11:24:51;;;;;;;;;;;;;;;-143.57;47.41;50980.97;4965945;28;19982;-66
2022/10/30 11:27:23;;;;;;;;;;;;;;;-143.57;45.17;50961.06;4964136;28;20020;-68
2022/10/30 11:29:57;;;;;;;;;;;;;;;-143.57;42.29;50990.91;4961680;28;19930;-68
2022/10/30 11:32:29;;;;;;;;;;;;;;;-143.57;41.91;50945.19;4958287;28;20308;-66
2022/10/30 11:35:10;;;;;;;;;;;;;;;-143.57;41.95;50973.00;4967201;28;20021;-67
2022/10/30 11:37:38;;;;;;;;;;;;;;;-143.57;42.09;50982.94;4963279;28;19934;-67
2022/10/30 11:40:10;;;;;;;;;;;;;;;-143.57;42.07;50947.16;4964500;28;20013;-67
2022/10/30 11:42:48;;;;;;;;;;;;;;;-143.57;41.96;50988.91;4957308;28;19972;-66
2022/10/30 11:45:22;;;;;;;;;;;;;;;-143.57;41.36;50965.06;4962648;28;19934;-67
2022/10/30 11:47:49;;;;;;;;;;;;;;;-143.57;41.58;50953.13;4961939;28;19969;-65
2022/10/30 11:50:20;;;;;;;;;;;;;;;-143.57;41.04;50980.97;4967695;28;20025;-65
2022/10/30 11:52:54;;;;;;;;;;;;;;;-143.57;40.90;50969.03;4964291;28;19934;-66
2022/10/30 11:55:26;;;;;;;;;;;;;;;-143.57;40.68;50976.97;4965673;28;19937;-67
2022/10/30 11:57:56;;;;;;;;;;;;;;;-143.57;40.27;50976.97;4958154;28;19929;-66
2022/10/30 12:00:26;;;;;;;;;;;;;;;-143.57;40.24;50996.84;4959003;28;20043;-66
2022/10/30 12:02:55;;;;;;;;;;;;;;;-143.57;38.74;50976.97;4961059;28;20627;-66
2022/10/30 12:05:22;;;;;;;;;;;;;;;-143.57;39.44;50973.00;4958268;28;19930;-66
2022/10/30 12:07:48;;;;;;;;;;;;;;;-143.57;39.31;50988.91;4958582;28;20061;-66
2022/10/30 12:10:28;;;;;;;;;;;;;;;-143.57;39.19;50969.03;4958234;28;19928;-66
2022/10/30 12:12:55;;;;;;;;;;;;;;;-143.57;38.84;50953.13;4960878;28;19926;-67
2022/10/30 12:15:26;;;;;;;;;;;;;;;-143.57;38.33;50988.91;4962147;28;20043;-66
2022/10/30 12:17:54;;;;;;;;;;;;;;;-143.57;37.50;50973.00;4965196;28;19941;-66
2022/10/30 12:20:20;;;;;;;;;;;;;;;-143.57;36.67;50967.03;4962485;28;19930;-66
2022/10/30 12:22:47;;;;;;;;;;;;;;;-143.57;36.01;50994.88;4960372;28;19952;-67
2022/10/30 12:25:27;;;;;;;;;;;;;;;-143.57;34.37;50976.97;4957635;28;19936;-68
2022/10/30 12:27:59;;;;;;;;;;;;;;;-143.57;32.63;50963.06;4961651;28;20772;-64
2022/10/30 12:30:28;;;;;;;;;;;;;;;-143.57;31.99;50976.97;4962536;28;20400;-66
2022/10/30 12:32:57;;;;;;;;;;;;;;;-143.57;31.37;50969.03;4964227;28;20415;-65
2022/10/30 12:35:43;;;;;;;;;;;;;;;-143.57;30.39;50941.19;4959465;28;20408;-67
2022/10/30 12:38:16;;;;;;;;;;;;;;;-143.57;29.39;50949.16;4966568;28;20415;-66
2022/10/30 12:40:49;;;;;;;;;;;;;;;-143.57;28.78;50937.22;4955647;28;20626;-66
2022/10/30 12:43:22;;;;;;;;;;;;;;;-143.57;27.63;50945.19;4963565;28;19980;-66
2022/10/30 12:45:50;;;;;;;;;;;;;;;-143.57;27.25;50965.06;4960229;28;20470;-66